Time;durP1;ratioP1;P1;durP2;ratioP2;P2;SDS_P1;SDS_P2;PMS_P1;PMS_P2;Temp;Humidity;BMP_temperature;BMP_pressure;BME280_temperature;BME280_humidity;BME280_pressure;Samples;Min_cycle;Max_cycle;Signal;HPM_P1;HPM_P2
2024/03/17 00:01:42;;;;;;;7.32;3.08;;;14.10;71.30;;;;;;5044760;28;20110;-75
2024/03/17 00:04:27;;;;;;;7.35;2.85;;;14.10;71.30;;;;;;5025855;28;20048;-76
2024/03/17 00:07:13;;;;;;;6.97;2.78;;;14.00;71.10;;;;;;5046436;28;20493;-75
2024/03/17 00:09:58;;;;;;;7.07;2.15;;;14.10;71.40;;;;;;5022377;28;20098;-74
2024/03/17 00:12:43;;;;;;;6.72;2.58;;;14.00;71.20;;;;;;5027321;28;20052;-74
2024/03/17 00:15:28;;;;;;;8.65;2.85;;;14.10;71.40;;;;;;5027965;28;20094;-76
2024/03/17 00:18:13;;;;;;;7.28;2.95;;;14.00;71.30;;;;;;5014861;28;20036;-76
2024/03/17 00:20:59;;;;;;;7.78;2.70;;;14.00;71.30;;;;;;5041517;28;20037;-77
2024/03/17 00:23:44;;;;;;;6.03;2.55;;;14.00;71.30;;;;;;5032571;28;20044;-76
2024/03/17 00:26:29;;;;;;;7.47;2.70;;;14.00;71.30;;;;;;5060718;28;20053;-77
2024/03/17 00:29:14;;;;;;;7.13;3.05;;;14.00;71.40;;;;;;5066394;28;20446;-77
2024/03/17 00:31:59;;;;;;;5.55;2.40;;;14.00;71.40;;;;;;5042134;28;20036;-76
2024/03/17 00:34:44;;;;;;;4.90;2.60;;;14.00;71.40;;;;;;5017000;28;20067;-76
2024/03/17 00:37:28;;;;;;;7.60;2.80;;;14.00;71.50;;;;;;5005151;28;20069;-77
2024/03/17 00:40:14;;;;;;;5.47;2.40;;;14.00;71.50;;;;;;5011979;28;20116;-76
2024/03/17 00:42:59;;;;;;;7.25;2.97;;;14.00;71.50;;;;;;5024348;28;20041;-75
2024/03/17 00:45:51;;;;;;;5.70;2.20;;;14.00;71.60;;;;;;5041967;28;20049;-75
2024/03/17 00:48:35;;;;;;;6.95;1.75;;;14.00;71.60;;;;;;5006888;28;20100;-76
2024/03/17 00:51:20;;;;;;;8.45;3.53;;;13.90;71.40;;;;;;5018504;28;20098;-77
2024/03/17 00:54:05;;;;;;;3.15;2.08;;;14.00;71.60;;;;;;5049873;28;20099;-77
2024/03/17 00:56:50;;;;;;;6.65;3.17;;;13.90;71.50;;;;;;5019283;28;20172;-77
2024/03/17 00:59:34;;;;;;;5.20;2.67;;;13.90;71.50;;;;;;5018492;28;20121;-76
2024/03/17 01:02:21;;;;;;;4.82;2.00;;;13.90;71.60;;;;;;5026716;28;20138;-77
2024/03/17 01:05:06;;;;;;;4.50;2.15;;;13.90;71.60;;;;;;5013551;28;20067;-76
2024/03/17 01:07:50;;;;;;;4.53;1.90;;;13.90;71.60;;;;;;5027858;28;20107;-77
2024/03/17 01:10:39;;;;;;;5.80;2.40;;;13.90;71.70;;;;;;5042214;28;20052;-77
2024/03/17 01:13:24;;;;;;;3.95;1.42;;;13.90;71.70;;;;;;5016367;28;20084;-77
2024/03/17 01:16:09;;;;;;;2.45;1.55;;;13.90;71.70;;;;;;5037409;28;20631;-76
2024/03/17 01:18:53;;;;;;;3.33;1.58;;;13.90;71.70;;;;;;5022623;28;20111;-77
2024/03/17 01:21:38;;;;;;;3.63;1.75;;;13.90;71.70;;;;;;5039959;28;20044;-77
2024/03/17 01:24:24;;;;;;;3.63;1.58;;;13.90;71.80;;;;;;5048711;28;20039;-75
2024/03/17 01:27:14;;;;;;;4.20;2.05;;;13.90;71.80;;;;;;5015049;28;20064;-75
2024/03/17 01:29:59;;;;;;;3.67;1.95;;;13.80;71.70;;;;;;5023441;28;20080;-76
2024/03/17 01:32:44;;;;;;;5.40;1.83;;;13.80;71.70;;;;;;5019697;28;20040;-77
2024/03/17 01:35:29;;;;;;;4.80;1.92;;;13.90;71.90;;;;;;5018728;28;20045;-76
2024/03/17 01:38:14;;;;;;;3.65;1.83;;;13.80;71.70;;;;;;5048391;28;20091;-77
2024/03/17 01:40:59;;;;;;;2.85;1.63;;;13.80;71.70;;;;;;5020920;28;20053;-78
2024/03/17 01:43:43;;;;;;;3.00;1.77;;;13.80;71.70;;;;;;5021692;28;20295;-77
2024/03/17 01:46:28;;;;;;;5.57;2.00;;;13.80;71.80;;;;;;5005990;28;20716;-75
2024/03/17 01:49:13;;;;;;;4.57;1.40;;;13.80;71.80;;;;;;5023459;28;20048;-75
2024/03/17 01:51:58;;;;;;;4.10;1.67;;;13.80;71.90;;;;;;5038640;28;20610;-76
2024/03/17 01:54:43;;;;;;;3.63;1.55;;;13.80;71.90;;;;;;5023013;28;20211;-75
2024/03/17 01:57:29;;;;;;;4.47;1.50;;;13.70;71.80;;;;;;5023450;28;20040;-76
2024/03/17 02:00:14;;;;;;;3.17;1.65;;;13.70;71.80;;;;;;5047955;28;20495;-76
2024/03/17 02:02:58;;;;;;;3.42;1.98;;;13.80;72.00;;;;;;5019834;28;20053;-77
2024/03/17 02:05:43;;;;;;;2.45;1.70;;;13.70;71.90;;;;;;5032378;28;20169;-76
2024/03/17 02:08:27;;;;;;;3.90;1.50;;;13.70;71.90;;;;;;5038764;28;20045;-76
2024/03/17 02:11:28;;;;;;;4.10;1.70;;;13.70;71.90;;;;;;5018966;28;20099;-76
2024/03/17 02:14:14;;;;;;;4.80;1.63;;;13.70;72.50;;;;;;5020947;28;20140;-76
2024/03/17 02:16:59;;;;;;;3.17;1.40;;;13.70;71.90;;;;;;5021333;28;20132;-76
2024/03/17 02:19:44;;;;;;;4.20;1.70;;;13.70;72.00;;;;;;5052367;28;20048;-77
2024/03/17 02:22:28;;;;;;;4.85;1.55;;;13.70;71.90;;;;;;5031002;28;20083;-76
2024/03/17 02:25:14;;;;;;;2.65;1.60;;;13.70;72.00;;;;;;5015526;28;20133;-76
2024/03/17 02:27:59;;;;;;;2.33;1.35;;;13.70;72.00;;;;;;5021977;28;20344;-77
2024/03/17 02:30:43;;;;;;;4.30;1.50;;;13.70;72.00;;;;;;5024235;28;20068;-76
2024/03/17 02:33:28;;;;;;;3.38;1.70;;;13.70;72.00;;;;;;5022025;28;20082;-77
2024/03/17 02:36:13;;;;;;;2.45;1.23;;;13.70;72.10;;;;;;5024926;28;20133;-77
2024/03/17 02:42:02;;;;;;;;;;;13.70;72.10;;;;;;5009717;28;20036;-76
2024/03/17 02:44:46;;;;;;;4.38;1.60;;;13.70;72.10;;;;;;5014738;28;19916;-76
2024/03/17 02:47:31;;;;;;;4.25;1.50;;;13.70;72.00;;;;;;5013612;28;20040;-77
2024/03/17 02:50:16;;;;;;;3.47;1.30;;;13.70;72.10;;;;;;5022321;28;20123;-77
2024/03/17 02:53:02;;;;;;;2.88;1.30;;;13.60;71.90;;;;;;5020155;28;20044;-78
2024/03/17 02:55:47;;;;;;;4.10;1.67;;;13.60;72.00;;;;;;5020728;28;20549;-77
2024/03/17 02:58:33;;;;;;;3.88;1.27;;;13.60;72.00;;;;;;5050077;28;20490;-77
2024/03/17 03:01:19;;;;;;;3.17;1.10;;;13.60;72.10;;;;;;5026026;28;20069;-78
2024/03/17 03:04:04;;;;;;;3.17;1.38;;;13.60;72.10;;;;;;5043199;28;20091;-77
2024/03/17 03:06:49;;;;;;;4.18;1.63;;;13.60;72.10;;;;;;5021901;28;20637;-78
2024/03/17 03:09:34;;;;;;;2.03;1.50;;;13.60;72.20;;;;;;5014766;28;20075;-77
2024/03/17 03:12:19;;;;;;;3.67;1.55;;;13.50;72.00;;;;;;5024873;28;20108;-78
2024/03/17 03:15:04;;;;;;;2.80;1.10;;;13.60;72.20;;;;;;5053812;28;20438;-78
2024/03/17 03:17:49;;;;;;;3.75;1.80;;;13.50;72.60;;;;;;5048289;28;20053;-76
2024/03/17 03:20:34;;;;;;;2.65;1.80;;;13.60;72.30;;;;;;5049869;28;20040;-80
2024/03/17 03:23:19;;;;;;;4.53;1.50;;;13.60;72.30;;;;;;5048589;28;20064;-78
2024/03/17 03:26:04;;;;;;;4.35;1.85;;;13.60;72.30;;;;;;5043151;28;20311;-79
2024/03/17 03:28:50;;;;;;;3.15;1.80;;;13.60;72.40;;;;;;5036798;28;20064;-77
2024/03/17 03:31:35;;;;;;;3.42;1.80;;;13.60;72.40;;;;;;5015859;28;20056;-77
2024/03/17 03:34:20;;;;;;;4.30;1.95;;;13.60;72.40;;;;;;5047725;28;20041;-79
2024/03/17 03:37:09;;;;;;;4.00;1.80;;;13.60;72.40;;;;;;5019713;28;20133;-78
2024/03/17 03:39:55;;;;;;;5.75;1.92;;;13.50;72.20;;;;;;5020457;28;20124;-77
2024/03/17 03:42:40;;;;;;;2.75;1.80;;;13.50;72.30;;;;;;5016604;28;20075;-77
2024/03/17 03:45:25;;;;;;;4.03;1.70;;;13.50;72.30;;;;;;5030382;28;20048;-78
2024/03/17 03:48:10;;;;;;;6.05;2.20;;;13.50;72.30;;;;;;5023914;28;20431;-78
2024/03/17 03:50:55;;;;;;;3.42;1.95;;;13.50;72.30;;;;;;5048921;28;20044;-78
2024/03/17 03:53:42;;;;;;;5.32;2.00;;;13.50;72.40;;;;;;5044266;28;20117;-78
2024/03/17 03:56:27;;;;;;;5.65;1.95;;;13.50;72.40;;;;;;5034415;28;20040;-77
2024/03/17 03:59:12;;;;;;;5.00;1.85;;;13.50;72.40;;;;;;5033344;28;20076;-77
2024/03/17 04:01:57;;;;;;;4.70;1.88;;;13.50;72.50;;;;;;5016051;28;20041;-77
2024/03/17 04:04:41;;;;;;;4.80;2.38;;;13.50;72.50;;;;;;5016601;28;20099;-78
2024/03/17 04:07:27;;;;;;;5.15;1.85;;;13.50;72.50;;;;;;5006706;28;20080;-78
2024/03/17 04:10:13;;;;;;;3.88;2.10;;;13.50;72.50;;;;;;5019836;28;20048;-78
2024/03/17 04:12:57;;;;;;;5.07;2.20;;;13.50;72.60;;;;;;5049956;28;20478;-78
2024/03/17 04:15:43;;;;;;;3.00;1.70;;;13.50;72.60;;;;;;5047859;28;20526;-78
2024/03/17 04:18:30;;;;;;;5.25;2.13;;;13.40;72.50;;;;;;5013294;28;20364;-79
2024/03/17 04:21:16;;;;;;;5.53;1.98;;;13.40;72.50;;;;;;5016215;28;20106;-77
2024/03/17 04:24:00;;;;;;;5.40;2.60;;;13.50;72.70;;;;;;5016069;28;20037;-79
2024/03/17 04:26:45;;;;;;;5.05;1.85;;;13.40;72.60;;;;;;5024948;28;20144;-78
2024/03/17 04:29:30;;;;;;;4.18;2.30;;;13.50;72.80;;;;;;5037332;28;20308;-78
2024/03/17 04:32:15;;;;;;;4.43;1.77;;;13.40;72.60;;;;;;5046345;28;20163;-79
2024/03/17 04:35:00;;;;;;;7.38;2.03;;;13.50;72.90;;;;;;5023678;28;20080;-79
2024/03/17 04:37:45;;;;;;;5.95;2.58;;;13.50;72.90;;;;;;5008739;28;20057;-78
2024/03/17 04:40:30;;;;;;;4.10;1.60;;;13.40;72.70;;;;;;5019243;28;20087;-79
2024/03/17 04:43:16;;;;;;;4.18;1.75;;;13.50;72.90;;;;;;5016123;28;20051;-79
2024/03/17 04:46:03;;;;;;;6.70;1.75;;;13.50;73.00;;;;;;5016382;28;20679;-78
2024/03/17 04:48:48;;;;;;;5.85;1.63;;;13.50;73.00;;;;;;5007797;28;20483;-78
2024/03/17 04:51:33;;;;;;;7.43;2.03;;;13.50;73.00;;;;;;5012478;28;20107;-77
2024/03/17 04:54:18;;;;;;;4.00;1.42;;;13.50;73.00;;;;;;5007787;28;20510;-78
2024/03/17 04:57:04;;;;;;;4.95;1.90;;;13.50;73.00;;;;;;5018883;28;20044;-79
2024/03/17 04:59:48;;;;;;;5.05;1.63;;;13.50;73.10;;;;;;5018360;28;20407;-79
2024/03/17 05:02:33;;;;;;;2.97;1.73;;;13.50;73.10;;;;;;5035089;28;20044;-79
2024/03/17 05:05:23;;;;;;;6.30;2.20;;;13.50;73.10;;;;;;5008777;28;20803;-79
2024/03/17 05:08:08;;;;;;;3.22;1.38;;;13.50;73.10;;;;;;5008882;28;20123;-79
2024/03/17 05:11:01;;;;;;;4.18;2.00;;;13.50;73.20;;;;;;5018781;28;20102;-79
2024/03/17 05:13:45;;;;;;;6.20;1.75;;;13.50;73.20;;;;;;4999135;28;20044;-77
2024/03/17 05:16:30;;;;;;;2.95;2.38;;;13.50;73.20;;;;;;5031003;28;20037;-78
2024/03/17 05:19:15;;;;;;;3.67;1.50;;;13.50;73.30;;;;;;5039619;28;20099;-78
2024/03/17 05:21:59;;;;;;;2.72;1.35;;;13.50;73.30;;;;;;5042571;28;20281;-79
2024/03/17 05:24:44;;;;;;;4.70;1.63;;;13.50;73.20;;;;;;5018997;28;20506;-78
2024/03/17 05:27:29;;;;;;;5.82;1.70;;;13.50;73.30;;;;;;5030904;28;20579;-79
2024/03/17 05:30:14;;;;;;;6.93;1.60;;;13.50;73.30;;;;;;5017471;28;20379;-79
2024/03/17 05:32:59;;;;;;;3.80;1.67;;;13.50;73.20;;;;;;5014753;28;20375;-80
2024/03/17 05:35:54;;;;;;;2.63;1.60;;;13.40;73.10;;;;;;5006422;28;20052;-80
2024/03/17 05:38:38;;;;;;;4.93;1.45;;;13.40;73.20;;;;;;5014898;28;20048;-79
2024/03/17 05:41:25;;;;;;;3.95;1.52;;;13.40;73.20;;;;;;5019376;28;20040;-79
2024/03/17 05:44:10;;;;;;;4.75;1.58;;;13.50;73.40;;;;;;5018763;28;20578;-79
2024/03/17 05:46:57;;;;;;;3.20;1.30;;;13.40;73.20;;;;;;5046505;28;20625;-79
2024/03/17 05:49:42;;;;;;;4.65;1.65;;;13.50;73.40;;;;;;5017565;28;20302;-78
2024/03/17 05:52:27;;;;;;;2.40;1.30;;;13.40;73.30;;;;;;5021578;28;20341;-79
2024/03/17 05:55:12;;;;;;;2.42;1.23;;;13.40;73.30;;;;;;5037965;28;20259;-80
2024/03/17 05:57:56;;;;;;;2.00;1.02;;;13.40;73.30;;;;;;5019825;28;20490;-79
2024/03/17 06:00:41;;;;;;;2.97;1.20;;;13.40;73.40;;;;;;5032022;28;20033;-78
2024/03/17 06:03:26;;;;;;;2.58;1.27;;;13.40;73.40;;;;;;5015868;28;20399;-79
2024/03/17 06:06:11;;;;;;;2.50;1.20;;;13.40;73.50;;;;;;5045703;28;20040;-80
2024/03/17 06:08:56;;;;;;;5.47;1.27;;;13.40;73.40;;;;;;5014031;28;20044;-80
2024/03/17 06:11:40;;;;;;;4.65;1.65;;;13.40;73.50;;;;;;5029395;28;20122;-81
2024/03/17 06:14:25;;;;;;;2.28;0.88;;;13.40;73.50;;;;;;5041960;28;20125;-79
2024/03/17 06:17:10;;;;;;;2.10;0.90;;;13.40;73.50;;;;;;5042314;28;20163;-79
2024/03/17 06:19:57;;;;;;;1.35;0.95;;;13.40;73.50;;;;;;5039632;28;20032;-80
2024/03/17 06:22:41;;;;;;;2.83;1.25;;;13.40;73.50;;;;;;5047139;28;20076;-79
2024/03/17 06:25:27;;;;;;;0.68;0.50;;;13.40;73.50;;;;;;5014512;28;20263;-79
2024/03/17 06:28:14;;;;;;;1.40;0.70;;;13.40;73.60;;;;;;5016569;28;20045;-79
2024/03/17 06:30:59;;;;;;;1.13;0.85;;;13.40;73.60;;;;;;5061865;28;20064;-80
2024/03/17 06:33:44;;;;;;;2.83;0.70;;;13.40;73.60;;;;;;5044170;28;20035;-81
2024/03/17 06:36:28;;;;;;;2.70;0.68;;;13.40;73.60;;;;;;5061041;28;20045;-80
2024/03/17 06:39:15;;;;;;;2.45;0.90;;;13.40;73.60;;;;;;5019974;28;20091;-82
2024/03/17 06:42:00;;;;;;;2.35;0.40;;;13.40;73.70;;;;;;5053203;28;20518;-81
2024/03/17 06:44:45;;;;;;;1.23;0.68;;;13.40;73.70;;;;;;5028030;28;20393;-81
2024/03/17 06:47:30;;;;;;;2.45;0.90;;;13.40;73.70;;;;;;5024675;28;20036;-81
2024/03/17 06:50:15;;;;;;;1.55;0.63;;;13.40;73.70;;;;;;5049105;28;20099;-80
2024/03/17 06:52:59;;;;;;;0.50;0.45;;;13.40;73.80;;;;;;5031923;28;20033;-79
2024/03/17 06:55:52;;;;;;;0.93;0.50;;;13.40;73.80;;;;;;5050103;28;20099;-80
2024/03/17 06:58:37;;;;;;;1.10;0.50;;;13.30;73.60;;;;;;5022400;28;20455;-80
2024/03/17 07:01:22;;;;;;;0.82;0.70;;;13.40;73.90;;;;;;5020687;28;20055;-80
2024/03/17 07:04:07;;;;;;;1.60;0.50;;;13.40;73.90;;;;;;5045573;28;20095;-80
2024/03/17 07:06:51;;;;;;;1.27;0.40;;;13.40;73.90;;;;;;5021084;28;20270;-80
2024/03/17 07:09:36;;;;;;;0.85;0.47;;;13.40;73.90;;;;;;5023258;28;20561;-80
2024/03/17 07:12:21;;;;;;;3.40;0.40;;;13.40;73.80;;;;;;5022535;28;20125;-78
2024/03/17 07:15:07;;;;;;;1.17;0.50;;;13.40;73.80;;;;;;5025163;28;20029;-80
2024/03/17 07:17:51;;;;;;;0.32;0.32;;;13.50;74.00;;;;;;5033500;28;20823;-79
2024/03/17 07:20:36;;;;;;;0.77;0.40;;;13.50;74.00;;;;;;5052459;28;20421;-80
2024/03/17 07:23:21;;;;;;;0.73;0.40;;;13.50;74.00;;;;;;5051772;28;20079;-79
2024/03/17 07:26:05;;;;;;;0.43;0.28;;;13.50;74.00;;;;;;5021959;28;20041;-79
2024/03/17 07:28:50;;;;;;;1.65;0.47;;;13.60;74.10;;;;;;5027525;28;20052;-79
2024/03/17 07:31:35;;;;;;;0.30;0.30;;;13.50;73.90;;;;;;5022262;28;20038;-78
2024/03/17 07:34:20;;;;;;;0.30;0.30;;;13.60;74.10;;;;;;5051762;28;20423;-80
2024/03/17 07:37:04;;;;;;;0.90;0.32;;;13.60;74.10;;;;;;5012997;28;20430;-78
2024/03/17 07:39:49;;;;;;;0.40;0.30;;;13.60;74.10;;;;;;5019656;28;20052;-77
2024/03/17 07:42:34;;;;;;;0.30;0.20;;;13.70;74.20;;;;;;5023117;28;20099;-77
2024/03/17 07:45:19;;;;;;;1.55;0.28;;;13.70;74.20;;;;;;5022734;28;20205;-77
2024/03/17 07:48:04;;;;;;;0.63;0.25;;;13.70;74.10;;;;;;5047427;28;20049;-79
2024/03/17 07:51:20;;;;;;;0.40;0.30;;;13.80;74.30;;;;;;5057164;28;20048;-79
2024/03/17 07:54:04;;;;;;;0.95;0.40;;;13.90;74.40;;;;;;5020822;28;20099;-79
2024/03/17 07:56:49;;;;;;;3.17;0.60;;;13.90;74.30;;;;;;5039501;28;20063;-78
2024/03/17 07:59:34;;;;;;;1.02;0.55;;;14.00;74.50;;;;;;5049584;28;20087;-77
2024/03/17 08:02:18;;;;;;;2.25;0.50;;;14.00;74.50;;;;;;5012153;28;20047;-77
2024/03/17 08:05:05;;;;;;;1.88;0.47;;;14.10;74.50;;;;;;5052222;28;20037;-76
2024/03/17 08:07:50;;;;;;;0.90;0.40;;;14.20;74.60;;;;;;5020686;28;20037;-78
2024/03/17 08:10:38;;;;;;;1.80;0.30;;;14.20;74.50;;;;;;5035499;28;20113;-78
2024/03/17 08:13:24;;;;;;;1.55;0.30;;;14.30;74.70;;;;;;5051565;28;20033;-78
2024/03/17 08:16:08;;;;;;;1.58;0.32;;;14.40;74.80;;;;;;5050357;28;20095;-77
2024/03/17 08:18:53;;;;;;;1.55;0.60;;;14.50;74.90;;;;;;5018495;28;20119;-77
2024/03/17 08:21:38;;;;;;;1.65;0.38;;;14.60;74.90;;;;;;5051167;28;20048;-77
2024/03/17 08:24:23;;;;;;;0.50;0.40;;;14.70;75.00;;;;;;5019406;28;20056;-75
2024/03/17 08:27:07;;;;;;;1.95;0.63;;;14.60;74.80;;;;;;5036132;28;20083;-77
2024/03/17 08:29:52;;;;;;;0.75;0.40;;;14.80;75.00;;;;;;5021636;28;20048;-77
2024/03/17 08:32:40;;;;;;;0.55;0.25;;;14.80;75.00;;;;;;5017803;28;20076;-77
2024/03/17 08:35:26;;;;;;;0.40;0.30;;;14.80;75.00;;;;;;5016081;28;20091;-77
2024/03/17 08:38:14;;;;;;;1.25;0.65;;;14.90;75.10;;;;;;5046153;28;20770;-77
2024/03/17 08:41:08;;;;;;;0.60;0.50;;;14.90;75.10;;;;;;5022191;28;20084;-77
2024/03/17 08:43:53;;;;;;;;;;;14.90;75.50;;;;;;5024508;28;20099;-78
2024/03/17 08:46:37;;;;;;;2.17;0.50;;;15.00;75.10;;;;;;5017523;28;19924;-77
2024/03/17 08:49:22;;;;;;;0.93;0.50;;;15.00;75.00;;;;;;5014901;28;20028;-78
2024/03/17 08:52:07;;;;;;;2.05;0.50;;;15.10;75.10;;;;;;5033175;28;20488;-77
2024/03/17 08:54:52;;;;;;;1.23;0.40;;;15.10;75.10;;;;;;5038416;28;20497;-77
2024/03/17 08:57:37;;;;;;;0.65;0.45;;;15.10;75.10;;;;;;5016803;28;20068;-78
2024/03/17 09:00:21;;;;;;;1.05;0.57;;;15.20;75.30;;;;;;5017334;28;20032;-77
2024/03/17 09:03:10;;;;;;;1.10;0.38;;;15.20;75.20;;;;;;5018258;28;20052;-77
2024/03/17 09:05:55;;;;;;;0.30;0.30;;;15.30;75.50;;;;;;5016788;28;20040;-80
2024/03/17 09:08:39;;;;;;;2.20;0.50;;;15.30;75.40;;;;;;5063502;28;20036;-77
2024/03/17 09:11:27;;;;;;;0.80;0.50;;;15.30;75.40;;;;;;5044570;28;20032;-80
2024/03/17 09:14:12;;;;;;;0.40;0.30;;;15.30;75.40;;;;;;5042571;28;20106;-77
2024/03/17 09:16:59;;;;;;;1.15;0.38;;;15.40;75.50;;;;;;5054224;28;20125;-78
2024/03/17 09:19:44;;;;;;;0.50;0.43;;;15.40;75.50;;;;;;5048298;28;20501;-77
2024/03/17 09:22:29;;;;;;;1.25;0.50;;;15.50;75.70;;;;;;5051908;28;20140;-77
2024/03/17 09:25:18;;;;;;;0.90;0.50;;;15.40;75.40;;;;;;5029519;28;20087;-77
2024/03/17 09:28:03;;;;;;;0.22;0.20;;;15.50;75.70;;;;;;5014389;28;20134;-77
2024/03/17 09:30:49;;;;;;;0.38;0.30;;;15.60;75.80;;;;;;5043582;28;20045;-77
2024/03/17 09:33:35;;;;;;;0.52;0.47;;;15.80;76.10;;;;;;5042051;28;20205;-75
2024/03/17 09:36:20;;;;;;;2.55;0.47;;;15.90;76.00;;;;;;5042766;28;20159;-78
2024/03/17 09:39:06;;;;;;;1.23;0.25;;;16.10;76.10;;;;;;5024911;28;20083;-78
2024/03/17 09:41:51;;;;;;;0.50;0.30;;;16.30;76.10;;;;;;5047939;28;20068;-76
2024/03/17 09:44:39;;;;;;;2.70;1.73;;;16.50;76.20;;;;;;5020408;28;20056;-76
2024/03/17 09:47:26;;;;;;;3.38;3.00;;;16.60;76.00;;;;;;5023271;28;20153;-76
2024/03/17 09:50:18;;;;;;;4.22;3.15;;;16.80;76.10;;;;;;5019855;28;20068;-75
2024/03/17 09:53:05;;;;;;;6.50;4.47;;;16.80;75.90;;;;;;5014305;28;20465;-76
2024/03/17 09:55:51;;;;;;;4.70;3.95;;;17.00;76.00;;;;;;5012591;28;20036;-77
2024/03/17 09:58:35;;;;;;;11.68;10.48;;;17.10;75.90;;;;;;5016526;28;20048;-77
2024/03/17 10:01:20;;;;;;;8.57;7.68;;;17.30;76.00;;;;;;5014575;28;20053;-77
2024/03/17 10:04:05;;;;;;;9.82;8.75;;;17.40;75.90;;;;;;5005438;28;20664;-79
2024/03/17 10:06:50;;;;;;;20.13;16.67;;;17.50;75.90;;;;;;5014204;28;20039;-78
2024/03/17 10:09:36;;;;;;;16.48;14.77;;;17.60;75.80;;;;;;5024919;28;20052;-77
2024/03/17 10:12:29;;;;;;;20.73;18.10;;;17.60;75.60;;;;;;5024724;28;20068;-78
2024/03/17 10:15:14;;;;;;;23.92;20.65;;;17.70;75.60;;;;;;5017986;28;20044;-74
2024/03/17 10:17:58;;;;;;;24.85;21.17;;;17.80;75.60;;;;;;5016045;28;20501;-77
2024/03/17 10:20:43;;;;;;;41.75;32.88;;;17.90;75.50;;;;;;5020826;28;20056;-77
2024/03/17 10:23:28;;;;;;;31.40;26.58;;;18.00;75.50;;;;;;5014989;28;20557;-76
2024/03/17 10:26:14;;;;;;;27.75;22.98;;;18.10;75.50;;;;;;5014440;28;20430;-76
2024/03/17 10:28:59;;;;;;;32.80;26.52;;;18.10;75.30;;;;;;5019998;28;20432;-77
2024/03/17 10:31:44;;;;;;;28.48;25.25;;;18.20;75.30;;;;;;5012611;28;20375;-74
2024/03/17 10:34:39;;;;;;;30.67;25.17;;;18.30;75.30;;;;;;5019457;28;20044;-75
2024/03/17 10:37:27;;;;;;;27.33;22.65;;;18.40;75.20;;;;;;5016992;28;20109;-75
2024/03/17 10:40:13;;;;;;;28.40;23.25;;;18.50;75.10;;;;;;5042768;28;20104;-75
2024/03/17 10:43:00;;;;;;;25.10;21.52;;;18.50;74.80;;;;;;5020698;28;20044;-76
2024/03/17 10:45:44;;;;;;;30.60;27.15;;;18.60;74.80;;;;;;5017530;28;20534;-76
2024/03/17 10:48:34;;;;;;;25.63;22.05;;;18.60;74.70;;;;;;5018447;28;20095;-77
2024/03/17 10:51:19;;;;;;;25.35;19.40;;;18.60;74.50;;;;;;5018358;28;20060;-75
2024/03/17 10:54:04;;;;;;;21.98;18.02;;;18.60;74.50;;;;;;5019091;28;20117;-75
2024/03/17 10:56:49;;;;;;;25.27;19.20;;;18.70;74.50;;;;;;5019824;28;20079;-75
2024/03/17 10:59:41;;;;;;;21.70;17.73;;;18.70;74.30;;;;;;5011531;28;20064;-76
2024/03/17 11:02:28;;;;;;;17.10;15.35;;;18.80;74.30;;;;;;5012462;28;20083;-75
2024/03/17 11:05:33;;;;;;;21.05;16.95;;;18.80;74.20;;;;;;5018646;28;20052;-75
2024/03/17 11:11:11;;;;;;;16.05;13.55;;;18.90;73.90;;;;;;5013647;28;20147;-75
2024/03/17 11:14:16;;;;;;;16.85;14.02;;;19.00;73.90;;;;;;5017033;28;20036;-75
2024/03/17 11:17:17;;;;;;;16.92;13.98;;;19.00;73.70;;;;;;5016291;28;20041;-76
2024/03/17 11:20:22;;;;;;;12.93;11.48;;;19.10;73.60;;;;;;5014459;28;20527;-75
2024/03/17 11:23:09;;;;;;;13.13;10.98;;;19.20;73.40;;;;;;5008060;28;20105;-75
2024/03/17 11:25:54;;;;;;;13.27;11.00;;;19.30;73.40;;;;;;5007384;28;20147;-76
2024/03/17 11:28:44;;;;;;;15.15;10.90;;;19.30;73.20;;;;;;5005992;28;20777;-75
2024/03/17 11:31:43;;;;;;;11.55;10.35;;;19.20;73.00;;;;;;5014820;28;20069;-76
2024/03/17 11:34:36;;;;;;;9.75;8.45;;;19.30;73.10;;;;;;4999431;28;20524;-75
2024/03/17 11:37:41;;;;;;;10.82;8.38;;;19.30;73.00;;;;;;4997004;28;20123;-76
2024/03/17 11:40:26;;;;;;;10.80;7.85;;;19.40;72.80;;;;;;4994944;28;20110;-74
2024/03/17 11:43:16;;;;;;;7.30;6.00;;;19.50;72.80;;;;;;4992209;28;20072;-77
2024/03/17 11:46:03;;;;;;;9.10;6.85;;;19.60;72.50;;;;;;4995912;28;20104;-74
2024/03/17 11:48:48;;;;;;;8.18;7.03;;;19.80;72.60;;;;;;4993921;28;20364;-77
2024/03/17 11:51:34;;;;;;;8.98;5.90;;;19.90;72.30;;;;;;4999339;28;20052;-75
2024/03/17 11:54:21;;;;;;;7.88;5.53;;;20.00;72.10;;;;;;5025769;28;20114;-76
2024/03/17 11:57:13;;;;;;;8.05;5.78;;;20.20;72.00;;;;;;5010159;28;20685;-75
2024/03/17 11:59:58;;;;;;;9.48;6.65;;;20.30;71.70;;;;;;4998543;28;20095;-74
2024/03/17 12:02:47;;;;;;;84.72;39.53;;;20.40;71.60;;;;;;4996296;28;20576;-76
2024/03/17 12:05:32;;;;;;;69.40;35.83;;;20.50;71.40;;;;;;4990996;28;20113;-76
2024/03/17 12:08:23;;;;;;;59.55;31.25;;;20.60;71.10;;;;;;5009883;28;20048;-73
2024/03/17 12:14:30;;;;;;;46.72;27.15;;;20.70;70.50;;;;;;5320272;23;20047;-84
2024/03/17 12:17:25;;;;;;;42.65;24.73;;;20.80;70.70;;;;;;4923594;28;20227;-84
2024/03/17 12:20:22;;;;;;;39.55;22.27;;;20.80;70.40;;;;;;4949032;28;20066;-85
2024/03/17 12:23:14;;;;;;;33.30;18.90;;;20.90;70.20;;;;;;4956316;28;20162;-83
2024/03/17 12:26:02;;;;;;;29.95;18.58;;;20.90;70.10;;;;;;4948487;28;20156;-82
2024/03/17 12:28:48;;;;;;;24.40;17.17;;;20.90;69.80;;;;;;4954509;28;20062;-84
2024/03/17 12:31:33;;;;;;;23.67;14.90;;;21.00;69.70;;;;;;4958138;28;20033;-84
2024/03/17 12:34:19;;;;;;;25.63;15.18;;;21.00;69.50;;;;;;4949797;28;20066;-84
2024/03/17 12:37:13;;;;;;;21.25;12.73;;;21.00;69.30;;;;;;4948081;29;20067;-88
2024/03/17 12:39:59;;;;;;;25.38;14.07;;;21.00;69.20;;;;;;4944978;29;20448;-82
2024/03/17 12:47:02;;;;;;;54.45;35.08;;;21.00;68.70;;;;;;4933666;29;20055;-81
2024/03/17 12:49:55;;;;;;;71.50;48.08;;;21.00;69.00;;;;;;4946317;29;20218;-81
2024/03/17 12:52:40;;;;;;;67.88;47.05;;;21.00;68.80;;;;;;4983469;28;20034;-80
2024/03/17 13:01:37;;;;;;;74.75;53.33;;;21.40;69.00;;;;;;4955334;28;20138;-82
2024/03/17 13:04:22;;;;;;;77.35;57.28;;;21.50;69.20;;;;;;4949688;28;20034;-81
2024/03/17 13:07:11;;;;;;;65.03;52.53;;;21.70;69.50;;;;;;4931439;29;20046;-83
2024/03/17 13:09:56;;;;;;;62.08;50.50;;;21.80;69.60;;;;;;4937455;28;20082;-80
2024/03/17 13:12:44;;;;;;;55.67;43.50;;;21.90;69.60;;;;;;4927530;28;20050;-85
2024/03/17 13:15:31;;;;;;;48.95;40.45;;;21.90;69.20;;;;;;4927241;28;20810;-80
2024/03/17 13:18:19;;;;;;;50.70;39.08;;;22.00;69.00;;;;;;4942782;28;20058;-81
2024/03/17 13:21:04;;;;;;;48.38;37.22;;;22.00;68.50;;;;;;4939252;28;20107;-80
2024/03/17 13:23:48;;;;;;;42.30;32.28;;;22.00;68.30;;;;;;4948740;28;20039;-80
2024/03/17 13:26:33;;;;;;;41.42;32.45;;;21.90;67.70;;;;;;4976217;28;20062;-81
2024/03/17 13:29:19;;;;;;;41.90;29.90;;;21.90;67.40;;;;;;4951261;28;20120;-82
2024/03/17 13:32:04;;;;;;;36.70;28.90;;;21.90;67.30;;;;;;4938984;28;20050;-82
2024/03/17 13:34:50;;;;;;;35.42;26.08;;;21.90;67.10;;;;;;4946953;28;20503;-81
2024/03/17 13:37:36;;;;;;;35.28;26.50;;;21.80;66.70;;;;;;4948126;28;20133;-80
2024/03/17 13:40:22;;;;;;;31.02;22.73;;;21.90;66.70;;;;;;4942026;28;20046;-81
2024/03/17 13:43:08;;;;;;;30.58;23.00;;;21.90;66.50;;;;;;4931360;29;20043;-81
2024/03/17 13:45:53;;;;;;;29.00;21.13;;;22.00;66.30;;;;;;4939571;29;20073;-83
2024/03/17 13:48:38;;;;;;;26.90;20.95;;;22.10;66.10;;;;;;4955106;28;20487;-82
2024/03/17 13:51:24;;;;;;;25.23;19.50;;;22.20;65.80;;;;;;4947379;28;20043;-80
2024/03/17 13:54:09;;;;;;;25.15;17.63;;;22.30;65.40;;;;;;4936970;28;20160;-83
2024/03/17 13:56:54;;;;;;;22.35;16.75;;;22.30;65.00;;;;;;4952247;28;20837;-81
2024/03/17 13:59:39;;;;;;;17.80;14.60;;;22.30;64.60;;;;;;4941292;28;20058;-82
2024/03/17 14:02:24;;;;;;;23.23;15.55;;;22.40;64.60;;;;;;4922922;28;20082;-86
2024/03/17 14:05:12;;;;;;;34.05;14.77;;;22.40;64.30;;;;;;4942153;29;20563;-81
2024/03/17 14:07:57;;;;;;;22.75;14.95;;;22.40;64.00;;;;;;4938409;28;20467;-76
2024/03/17 14:10:42;;;;;;;19.42;13.45;;;22.50;64.10;;;;;;4939804;28;20139;-77
2024/03/17 14:13:26;;;;;;;19.63;13.95;;;22.60;64.10;;;;;;4944141;29;20042;-77
2024/03/17 14:16:11;;;;;;;21.00;11.82;;;22.70;64.00;;;;;;4958057;28;20183;-82
2024/03/17 14:18:56;;;;;;;18.80;13.07;;;22.70;63.70;;;;;;4921740;29;20055;-74
2024/03/17 14:21:41;;;;;;;16.63;11.60;;;22.80;63.60;;;;;;4923242;29;20050;-76
2024/03/17 14:24:26;;;;;;;16.17;10.82;;;22.80;63.30;;;;;;4908527;29;20047;-75
2024/03/17 14:27:13;;;;;;;15.35;11.75;;;22.80;63.10;;;;;;4930105;28;20066;-76
2024/03/17 14:29:57;;;;;;;13.63;10.02;;;22.80;62.80;;;;;;4945079;29;20054;-75
2024/03/17 14:32:42;;;;;;;14.82;10.82;;;22.80;62.70;;;;;;4944675;29;20038;-76
2024/03/17 14:35:27;;;;;;;13.07;9.70;;;22.80;62.50;;;;;;4936694;28;20046;-76
2024/03/17 14:38:14;;;;;;;12.75;9.98;;;22.80;62.30;;;;;;4945955;28;20122;-78
2024/03/17 14:40:59;;;;;;;14.70;8.77;;;22.80;62.20;;;;;;4934160;29;20058;-78